Terminal Aerodrome Forecast
Issued by NWS Charleston, WV

Current Version | Previous Version | Graphics & Text | Print | Product List | Glossary On
Versions: 1 2 3 4 5 6 7 8 9 10 11 12 13 14 15 16 17 18 19 20 21 22 23 24 25
000
FTUS41 KRLX 211500 AAA
TAFHTS
TAF AMD
KHTS 211500Z 2115/2212 02004KT 6SM BR OVC009
     FM211600 36006KT P6SM BKN015
     FM212000 35005KT P6SM BKN070=

USA.gov is the U.S. government's official web portal to all federal, state and local government web resources and services.